Preview of NWS' New Version of Forecast
This preview is not operational and should not be used for support decisions.

Terminal Aerodrome Forecast (TAF)

Issued by National Weather Service (NWS)

                            
592 
FTUS42 KKEY 200528
TAFMTH
TAF
KMTH 200528Z 2006/2106 10012G18KT P6SM -RA SCT010 SCT015 BKN040
      TEMPO 2006/2010 3SM SHRA BR BKN010 BKN016
     FM201000 13013G21KT P6SM VCSH SCT015 BKN040 BKN080 PROB30
      2016/2022 2SM SHRA BR BKN015 OVC030=